sensor_id;sensor_type;location;lat;lon;timestamp;temperature;humidity
55091;DHT22;40985;53.180;5.800;2022-11-20T00:00:40;-0.30;99.90
55091;DHT22;40985;53.180;5.800;2022-11-20T00:03:06;-0.30;99.90
55091;DHT22;40985;53.180;5.800;2022-11-20T00:05:32;-0.30;99.90
55091;DHT22;40985;53.180;5.800;2022-11-20T00:07:58;-0.30;99.90
55091;DHT22;40985;53.180;5.800;2022-11-20T00:10:24;-0.30;99.90
55091;DHT22;40985;53.180;5.800;2022-11-20T00:12:49;-0.30;99.90
55091;DHT22;40985;53.180;5.800;2022-11-20T00:15:15;-0.30;99.90
55091;DHT22;40985;53.180;5.800;2022-11-20T00:17:41;-0.30;99.90
55091;DHT22;40985;53.180;5.800;2022-11-20T00:20:07;-0.30;99.90
55091;DHT22;40985;53.180;5.800;2022-11-20T00:22:33;-0.30;99.90
55091;DHT22;40985;53.180;5.800;2022-11-20T00:24:59;-0.40;99.90
55091;DHT22;40985;53.180;5.800;2022-11-20T00:27:25;-0.40;99.90
55091;DHT22;40985;53.180;5.800;2022-11-20T00:29:50;-0.40;99.90
55091;DHT22;40985;53.180;5.800;2022-11-20T00:32:16;-0.40;99.90
55091;DHT22;40985;53.180;5.800;2022-11-20T00:34:41;-0.50;99.90
55091;DHT22;40985;53.180;5.800;2022-11-20T00:37:07;-0.50;99.90
55091;DHT22;40985;53.180;5.800;2022-11-20T00:39:33;-0.60;99.90
55091;DHT22;40985;53.180;5.800;2022-11-20T00:41:58;-0.60;99.90
55091;DHT22;40985;53.180;5.800;2022-11-20T00:44:24;-0.60;99.90
55091;DHT22;40985;53.180;5.800;2022-11-20T00:46:50;-0.60;99.90
55091;DHT22;40985;53.180;5.800;2022-11-20T00:49:15;-0.60;99.90
55091;DHT22;40985;53.180;5.800;2022-11-20T00:51:41;-0.60;99.90
55091;DHT22;40985;53.180;5.800;2022-11-20T00:54:07;-0.60;99.90
55091;DHT22;40985;53.180;5.800;2022-11-20T00:56:32;-0.60;99.90
55091;DHT22;40985;53.180;5.800;2022-11-20T00:59:00;-0.60;99.90
55091;DHT22;40985;53.180;5.800;2022-11-20T01:01:27;-0.60;99.90
55091;DHT22;40985;53.180;5.800;2022-11-20T01:03:56;-0.50;99.90
55091;DHT22;40985;53.180;5.800;2022-11-20T01:06:31;-0.50;99.90
55091;DHT22;40985;53.180;5.800;2022-11-20T01:08:59;-0.40;99.90
55091;DHT22;40985;53.180;5.800;2022-11-20T01:11:30;-0.40;99.90
55091;DHT22;40985;53.180;5.800;2022-11-20T01:13:58;-0.40;99.90
55091;DHT22;40985;53.180;5.800;2022-11-20T01:16:28;-0.40;99.90
55091;DHT22;40985;53.180;5.800;2022-11-20T01:18:57;-0.40;99.90
55091;DHT22;40985;53.180;5.800;2022-11-20T01:21:26;-0.40;99.90
55091;DHT22;40985;53.180;5.800;2022-11-20T01:23:52;-0.40;99.90
55091;DHT22;40985;53.180;5.800;2022-11-20T01:26:27;-0.40;99.90
55091;DHT22;40985;53.180;5.800;2022-11-20T01:28:54;-0.40;99.90
55091;DHT22;40985;53.180;5.800;2022-11-20T01:31:31;-0.40;99.90
55091;DHT22;40985;53.180;5.800;2022-11-20T01:34:00;-0.40;99.90
55091;DHT22;40985;53.180;5.800;2022-11-20T01:36:28;-0.40;99.90
55091;DHT22;40985;53.180;5.800;2022-11-20T01:38:55;-0.40;99.90
55091;DHT22;40985;53.180;5.800;2022-11-20T01:41:22;-0.40;99.90
55091;DHT22;40985;53.180;5.800;2022-11-20T01:44:08;-0.50;99.90
55091;DHT22;40985;53.180;5.800;2022-11-20T01:46:37;-0.50;99.90
55091;DHT22;40985;53.180;5.800;2022-11-20T01:49:15;-0.50;99.90
55091;DHT22;40985;53.180;5.800;2022-11-20T01:51:43;-0.50;99.90
55091;DHT22;40985;53.180;5.800;2022-11-20T01:54:22;-0.20;99.90
55091;DHT22;40985;53.180;5.800;2022-11-20T01:56:51;-0.60;99.90
55091;DHT22;40985;53.180;5.800;2022-11-20T01:59:19;-0.60;99.90
55091;DHT22;40985;53.180;5.800;2022-11-20T02:01:46;-0.60;99.90
55091;DHT22;40985;53.180;5.800;2022-11-20T02:04:12;-0.60;99.90
55091;DHT22;40985;53.180;5.800;2022-11-20T02:06:44;-0.60;99.90
55091;DHT22;40985;53.180;5.800;2022-11-20T02:09:11;-0.60;99.90
55091;DHT22;40985;53.180;5.800;2022-11-20T02:11:37;-0.50;99.90
55091;DHT22;40985;53.180;5.800;2022-11-20T02:14:03;-0.60;99.90
55091;DHT22;40985;53.180;5.800;2022-11-20T02:16:31;-0.50;99.90
55091;DHT22;40985;53.180;5.800;2022-11-20T02:19:00;-0.50;99.90
55091;DHT22;40985;53.180;5.800;2022-11-20T02:21:37;-0.50;99.90
55091;DHT22;40985;53.180;5.800;2022-11-20T02:24:11;-0.50;99.90
55091;DHT22;40985;53.180;5.800;2022-11-20T02:26:51;-0.50;99.90
55091;DHT22;40985;53.180;5.800;2022-11-20T02:29:23;-0.50;99.90
55091;DHT22;40985;53.180;5.800;2022-11-20T02:31:50;-0.50;99.90
55091;DHT22;40985;53.180;5.800;2022-11-20T02:34:16;-0.50;99.90
55091;DHT22;40985;53.180;5.800;2022-11-20T02:36:42;-0.60;99.90
55091;DHT22;40985;53.180;5.800;2022-11-20T02:39:09;-0.50;99.90
55091;DHT22;40985;53.180;5.800;2022-11-20T02:41:38;-0.50;99.90
55091;DHT22;40985;53.180;5.800;2022-11-20T02:44:05;-0.50;99.90
55091;DHT22;40985;53.180;5.800;2022-11-20T02:46:31;-0.40;99.90
55091;DHT22;40985;53.180;5.800;2022-11-20T02:48:58;-0.50;99.90
55091;DHT22;40985;53.180;5.800;2022-11-20T02:51:24;-0.40;99.90
55091;DHT22;40985;53.180;5.800;2022-11-20T02:53:50;-0.40;99.90
55091;DHT22;40985;53.180;5.800;2022-11-20T02:56:16;-0.40;99.90
55091;DHT22;40985;53.180;5.800;2022-11-20T02:58:41;-0.40;99.90
55091;DHT22;40985;53.180;5.800;2022-11-20T03:01:07;-0.40;99.90
55091;DHT22;40985;53.180;5.800;2022-11-20T03:03:32;-0.40;99.90
55091;DHT22;40985;53.180;5.800;2022-11-20T03:05:59;-0.40;99.90
55091;DHT22;40985;53.180;5.800;2022-11-20T03:08:25;-0.40;99.90
55091;DHT22;40985;53.180;5.800;2022-11-20T03:10:51;-0.40;99.90
55091;DHT22;40985;53.180;5.800;2022-11-20T03:13:16;-0.40;99.90
55091;DHT22;40985;53.180;5.800;2022-11-20T03:15:42;-0.40;99.90
55091;DHT22;40985;53.180;5.800;2022-11-20T03:18:08;-0.40;99.90
55091;DHT22;40985;53.180;5.800;2022-11-20T03:20:33;-0.40;99.90
55091;DHT22;40985;53.180;5.800;2022-11-20T03:23:00;-0.40;99.90
55091;DHT22;40985;53.180;5.800;2022-11-20T03:25:25;-0.40;99.90
55091;DHT22;40985;53.180;5.800;2022-11-20T03:27:51;-0.30;99.90
55091;DHT22;40985;53.180;5.800;2022-11-20T03:30:17;-0.30;99.90
55091;DHT22;40985;53.180;5.800;2022-11-20T03:32:43;-0.30;99.90
55091;DHT22;40985;53.180;5.800;2022-11-20T03:35:09;-0.30;99.90
55091;DHT22;40985;53.180;5.800;2022-11-20T03:37:35;-0.30;99.90
55091;DHT22;40985;53.180;5.800;2022-11-20T03:40:00;-0.40;99.90
55091;DHT22;40985;53.180;5.800;2022-11-20T03:42:26;-0.40;99.90
55091;DHT22;40985;53.180;5.800;2022-11-20T03:45:10;-0.40;99.90
55091;DHT22;40985;53.180;5.800;2022-11-20T03:47:36;-0.50;99.90
55091;DHT22;40985;53.180;5.800;2022-11-20T03:50:02;-0.50;99.90
55091;DHT22;40985;53.180;5.800;2022-11-20T03:52:28;-0.50;99.90
55091;DHT22;40985;53.180;5.800;2022-11-20T03:54:53;-0.60;99.90
55091;DHT22;40985;53.180;5.800;2022-11-20T03:57:19;-0.60;99.90
55091;DHT22;40985;53.180;5.800;2022-11-20T03:59:44;-0.60;99.90
55091;DHT22;40985;53.180;5.800;2022-11-20T04:02:10;-0.70;99.90
55091;DHT22;40985;53.180;5.800;2022-11-20T04:04:36;-0.70;99.90
55091;DHT22;40985;53.180;5.800;2022-11-20T04:07:02;-0.70;99.90
55091;DHT22;40985;53.180;5.800;2022-11-20T04:09:28;-0.70;99.90
55091;DHT22;40985;53.180;5.800;2022-11-20T04:11:54;-0.70;99.90
55091;DHT22;40985;53.180;5.800;2022-11-20T04:14:19;-0.80;99.90
55091;DHT22;40985;53.180;5.800;2022-11-20T04:16:45;-0.80;99.90
55091;DHT22;40985;53.180;5.800;2022-11-20T04:19:13;-0.90;99.90
55091;DHT22;40985;53.180;5.800;2022-11-20T04:21:39;-0.90;99.90
55091;DHT22;40985;53.180;5.800;2022-11-20T04:24:05;-0.90;99.90
55091;DHT22;40985;53.180;5.800;2022-11-20T04:26:31;-0.90;99.90
55091;DHT22;40985;53.180;5.800;2022-11-20T04:28:57;-1.00;99.90
55091;DHT22;40985;53.180;5.800;2022-11-20T04:31:26;-1.00;99.90
55091;DHT22;40985;53.180;5.800;2022-11-20T04:33:52;-1.10;99.90
55091;DHT22;40985;53.180;5.800;2022-11-20T04:36:23;-1.10;99.90
55091;DHT22;40985;53.180;5.800;2022-11-20T04:38:54;-1.20;99.90
55091;DHT22;40985;53.180;5.800;2022-11-20T04:41:21;-1.20;99.90
55091;DHT22;40985;53.180;5.800;2022-11-20T04:43:52;-1.20;99.90
55091;DHT22;40985;53.180;5.800;2022-11-20T04:46:19;-1.30;99.90
55091;DHT22;40985;53.180;5.800;2022-11-20T04:48:45;-1.30;99.90
55091;DHT22;40985;53.180;5.800;2022-11-20T04:51:11;-1.30;99.90
55091;DHT22;40985;53.180;5.800;2022-11-20T04:53:37;-1.30;99.90
55091;DHT22;40985;53.180;5.800;2022-11-20T04:56:05;-1.40;99.90
55091;DHT22;40985;53.180;5.800;2022-11-20T04:58:31;-1.30;99.90
55091;DHT22;40985;53.180;5.800;2022-11-20T05:01:17;-1.40;99.90
55091;DHT22;40985;53.180;5.800;2022-11-20T05:03:43;-1.40;99.90
55091;DHT22;40985;53.180;5.800;2022-11-20T05:06:12;-1.40;99.90
55091;DHT22;40985;53.180;5.800;2022-11-20T05:08:38;-1.40;99.90
55091;DHT22;40985;53.180;5.800;2022-11-20T05:11:14;-1.50;99.90
55091;DHT22;40985;53.180;5.800;2022-11-20T05:13:40;-1.50;99.90
55091;DHT22;40985;53.180;5.800;2022-11-20T05:16:08;-1.50;99.90
55091;DHT22;40985;53.180;5.800;2022-11-20T05:18:35;-1.50;99.90
55091;DHT22;40985;53.180;5.800;2022-11-20T05:21:02;-1.50;99.90
55091;DHT22;40985;53.180;5.800;2022-11-20T05:23:29;-1.50;99.90
55091;DHT22;40985;53.180;5.800;2022-11-20T05:25:56;-1.50;99.90
55091;DHT22;40985;53.180;5.800;2022-11-20T05:28:22;-1.50;99.90
55091;DHT22;40985;53.180;5.800;2022-11-20T05:30:48;-1.50;99.90
55091;DHT22;40985;53.180;5.800;2022-11-20T05:33:15;-1.60;99.90
55091;DHT22;40985;53.180;5.800;2022-11-20T05:35:41;-1.60;99.90
55091;DHT22;40985;53.180;5.800;2022-11-20T05:38:07;-1.60;99.90
55091;DHT22;40985;53.180;5.800;2022-11-20T05:40:32;-1.60;99.90
55091;DHT22;40985;53.180;5.800;2022-11-20T05:42:59;-1.60;99.90
55091;DHT22;40985;53.180;5.800;2022-11-20T05:45:24;-1.70;99.90
55091;DHT22;40985;53.180;5.800;2022-11-20T05:47:50;-1.70;99.90
55091;DHT22;40985;53.180;5.800;2022-11-20T05:50:16;-1.70;99.90
55091;DHT22;40985;53.180;5.800;2022-11-20T05:52:41;-1.80;99.90
55091;DHT22;40985;53.180;5.800;2022-11-20T05:55:07;-1.80;99.90
55091;DHT22;40985;53.180;5.800;2022-11-20T05:57:33;-1.90;99.90
55091;DHT22;40985;53.180;5.800;2022-11-20T05:59:59;-1.90;99.90
55091;DHT22;40985;53.180;5.800;2022-11-20T06:02:24;-1.90;99.90
55091;DHT22;40985;53.180;5.800;2022-11-20T06:04:50;-2.00;99.90
55091;DHT22;40985;53.180;5.800;2022-11-20T06:07:16;-2.00;99.90
55091;DHT22;40985;53.180;5.800;2022-11-20T06:09:42;-1.90;99.90
55091;DHT22;40985;53.180;5.800;2022-11-20T06:12:08;-1.90;99.90
55091;DHT22;40985;53.180;5.800;2022-11-20T06:14:33;-1.90;99.90
55091;DHT22;40985;53.180;5.800;2022-11-20T06:16:59;-1.80;99.90
55091;DHT22;40985;53.180;5.800;2022-11-20T06:19:25;-1.80;99.90
55091;DHT22;40985;53.180;5.800;2022-11-20T06:21:50;-1.80;99.90
55091;DHT22;40985;53.180;5.800;2022-11-20T06:24:17;-1.80;99.90
55091;DHT22;40985;53.180;5.800;2022-11-20T06:26:43;-1.80;99.90
55091;DHT22;40985;53.180;5.800;2022-11-20T06:29:08;-1.80;99.90
55091;DHT22;40985;53.180;5.800;2022-11-20T06:31:35;-1.90;99.90
55091;DHT22;40985;53.180;5.800;2022-11-20T06:34:04;-1.90;99.90
55091;DHT22;40985;53.180;5.800;2022-11-20T06:36:30;-1.90;99.90
55091;DHT22;40985;53.180;5.800;2022-11-20T06:38:56;-1.90;99.90
55091;DHT22;40985;53.180;5.800;2022-11-20T06:41:22;-1.90;99.90
55091;DHT22;40985;53.180;5.800;2022-11-20T06:43:48;-1.90;99.90
55091;DHT22;40985;53.180;5.800;2022-11-20T06:46:16;-1.90;99.90
55091;DHT22;40985;53.180;5.800;2022-11-20T06:48:45;-1.90;99.90
55091;DHT22;40985;53.180;5.800;2022-11-20T06:51:10;-2.00;99.90
55091;DHT22;40985;53.180;5.800;2022-11-20T06:53:37;-2.00;99.90
55091;DHT22;40985;53.180;5.800;2022-11-20T06:56:03;-2.00;99.90
55091;DHT22;40985;53.180;5.800;2022-11-20T06:58:30;-2.00;99.90
55091;DHT22;40985;53.180;5.800;2022-11-20T07:01:00;-2.00;99.90
55091;DHT22;40985;53.180;5.800;2022-11-20T07:03:26;-2.10;99.90
55091;DHT22;40985;53.180;5.800;2022-11-20T07:05:57;-2.10;99.90
55091;DHT22;40985;53.180;5.800;2022-11-20T07:08:23;-1.70;99.90
55091;DHT22;40985;53.180;5.800;2022-11-20T07:10:49;-2.10;99.90
55091;DHT22;40985;53.180;5.800;2022-11-20T07:13:15;-2.10;99.90
55091;DHT22;40985;53.180;5.800;2022-11-20T07:15:40;-2.00;99.90
55091;DHT22;40985;53.180;5.800;2022-11-20T07:18:06;-2.00;99.90
55091;DHT22;40985;53.180;5.800;2022-11-20T07:20:31;-1.90;99.90
55091;DHT22;40985;53.180;5.800;2022-11-20T07:22:57;-1.90;99.90
55091;DHT22;40985;53.180;5.800;2022-11-20T07:25:27;-1.90;99.90
55091;DHT22;40985;53.180;5.800;2022-11-20T07:27:57;-1.80;99.90
55091;DHT22;40985;53.180;5.800;2022-11-20T07:30:22;-1.80;99.90
55091;DHT22;40985;53.180;5.800;2022-11-20T07:32:52;-1.80;99.90
55091;DHT22;40985;53.180;5.800;2022-11-20T07:35:18;-1.60;99.90
55091;DHT22;40985;53.180;5.800;2022-11-20T07:37:44;-1.70;99.90
55091;DHT22;40985;53.180;5.800;2022-11-20T07:40:12;-1.70;99.90
55091;DHT22;40985;53.180;5.800;2022-11-20T07:42:38;-1.70;99.90
55091;DHT22;40985;53.180;5.800;2022-11-20T07:45:04;-1.70;99.90
55091;DHT22;40985;53.180;5.800;2022-11-20T07:47:35;-1.60;99.90
55091;DHT22;40985;53.180;5.800;2022-11-20T07:50:01;-1.50;99.90
55091;DHT22;40985;53.180;5.800;2022-11-20T07:52:27;-1.40;99.90
55091;DHT22;40985;53.180;5.800;2022-11-20T07:54:52;-1.30;99.90
55091;DHT22;40985;53.180;5.800;2022-11-20T07:57:18;-1.30;99.90
55091;DHT22;40985;53.180;5.800;2022-11-20T07:59:43;-1.20;99.90
55091;DHT22;40985;53.180;5.800;2022-11-20T08:02:11;-1.20;99.90
55091;DHT22;40985;53.180;5.800;2022-11-20T08:04:37;-1.10;99.90
55091;DHT22;40985;53.180;5.800;2022-11-20T08:07:02;-1.20;99.90
55091;DHT22;40985;53.180;5.800;2022-11-20T08:09:28;-1.10;99.90
55091;DHT22;40985;53.180;5.800;2022-11-20T08:11:54;-1.20;99.90
55091;DHT22;40985;53.180;5.800;2022-11-20T08:14:39;-1.20;99.90
55091;DHT22;40985;53.180;5.800;2022-11-20T08:17:04;-1.10;99.90
55091;DHT22;40985;53.180;5.800;2022-11-20T08:19:30;-1.10;99.90
55091;DHT22;40985;53.180;5.800;2022-11-20T08:21:56;-1.10;99.90
55091;DHT22;40985;53.180;5.800;2022-11-20T08:24:21;-1.00;99.90
55091;DHT22;40985;53.180;5.800;2022-11-20T08:26:47;-0.90;99.90
55091;DHT22;40985;53.180;5.800;2022-11-20T08:29:12;-0.90;99.90
55091;DHT22;40985;53.180;5.800;2022-11-20T08:31:38;-0.90;99.90
55091;DHT22;40985;53.180;5.800;2022-11-20T08:34:04;-0.80;99.90
55091;DHT22;40985;53.180;5.800;2022-11-20T08:36:33;-0.80;99.90
55091;DHT22;40985;53.180;5.800;2022-11-20T08:38:58;-0.70;99.90
55091;DHT22;40985;53.180;5.800;2022-11-20T08:41:24;-0.60;99.90
55091;DHT22;40985;53.180;5.800;2022-11-20T08:43:55;-0.60;99.90
55091;DHT22;40985;53.180;5.800;2022-11-20T08:46:21;-0.60;99.90
55091;DHT22;40985;53.180;5.800;2022-11-20T08:48:47;-0.60;99.90
55091;DHT22;40985;53.180;5.800;2022-11-20T08:51:14;-0.60;99.90
55091;DHT22;40985;53.180;5.800;2022-11-20T08:53:40;-0.50;99.90
55091;DHT22;40985;53.180;5.800;2022-11-20T08:56:06;-0.50;99.90
55091;DHT22;40985;53.180;5.800;2022-11-20T08:58:32;-0.50;99.90
55091;DHT22;40985;53.180;5.800;2022-11-20T09:00:57;-0.40;99.90
55091;DHT22;40985;53.180;5.800;2022-11-20T09:03:23;-0.40;99.90
55091;DHT22;40985;53.180;5.800;2022-11-20T09:05:49;-0.30;99.90
55091;DHT22;40985;53.180;5.800;2022-11-20T09:08:14;-0.20;99.90
55091;DHT22;40985;53.180;5.800;2022-11-20T09:10:40;-0.20;99.90
55091;DHT22;40985;53.180;5.800;2022-11-20T09:13:06;-0.10;99.90
55091;DHT22;40985;53.180;5.800;2022-11-20T09:15:32;-0.10;99.90
55091;DHT22;40985;53.180;5.800;2022-11-20T09:18:02;0.00;99.90
55091;DHT22;40985;53.180;5.800;2022-11-20T09:20:30;0.10;99.90
55091;DHT22;40985;53.180;5.800;2022-11-20T09:22:56;0.10;99.90
55091;DHT22;40985;53.180;5.800;2022-11-20T09:25:23;0.20;99.90
55091;DHT22;40985;53.180;5.800;2022-11-20T09:27:57;0.30;99.90
55091;DHT22;40985;53.180;5.800;2022-11-20T09:30:24;0.40;99.90
55091;DHT22;40985;53.180;5.800;2022-11-20T09:32:50;0.60;99.90
55091;DHT22;40985;53.180;5.800;2022-11-20T09:35:15;0.70;99.90
55091;DHT22;40985;53.180;5.800;2022-11-20T09:37:41;0.80;99.90
55091;DHT22;40985;53.180;5.800;2022-11-20T09:40:20;1.00;99.90
55091;DHT22;40985;53.180;5.800;2022-11-20T09:56:08;1.50;99.90
55091;DHT22;40985;53.180;5.800;2022-11-20T09:58:49;1.60;99.90
55091;DHT22;40985;53.180;5.800;2022-11-20T10:01:17;1.60;99.90
55091;DHT22;40985;53.180;5.800;2022-11-20T10:03:53;1.70;99.90
55091;DHT22;40985;53.180;5.800;2022-11-20T10:06:31;1.80;99.90
55091;DHT22;40985;53.180;5.800;2022-11-20T10:09:16;1.90;99.90
55091;DHT22;40985;53.180;5.800;2022-11-20T10:12:13;1.90;99.90
55091;DHT22;40985;53.180;5.800;2022-11-20T10:20:32;2.20;99.90
55091;DHT22;40985;53.180;5.800;2022-11-20T10:26:01;2.30;99.90
55091;DHT22;40985;53.180;5.800;2022-11-20T10:31:08;2.20;99.90
55091;DHT22;40985;53.180;5.800;2022-11-20T10:33:44;2.20;99.90
55091;DHT22;40985;53.180;5.800;2022-11-20T10:36:33;2.20;99.90
55091;DHT22;40985;53.180;5.800;2022-11-20T10:39:06;2.40;99.90
55091;DHT22;40985;53.180;5.800;2022-11-20T10:41:38;2.60;99.90
55091;DHT22;40985;53.180;5.800;2022-11-20T10:44:12;2.80;99.90
55091;DHT22;40985;53.180;5.800;2022-11-20T10:46:44;3.00;99.90
55091;DHT22;40985;53.180;5.800;2022-11-20T10:49:16;3.10;99.90
55091;DHT22;40985;53.180;5.800;2022-11-20T10:52:25;3.20;99.90
55091;DHT22;40985;53.180;5.800;2022-11-20T10:58:09;3.00;99.90
55091;DHT22;40985;53.180;5.800;2022-11-20T11:00:35;3.00;99.90
55091;DHT22;40985;53.180;5.800;2022-11-20T11:03:01;2.90;99.90
55091;DHT22;40985;53.180;5.800;2022-11-20T11:07:58;2.80;99.90
55091;DHT22;40985;53.180;5.800;2022-11-20T11:10:42;2.80;99.90
55091;DHT22;40985;53.180;5.800;2022-11-20T11:13:31;2.70;99.90
55091;DHT22;40985;53.180;5.800;2022-11-20T11:15:57;2.70;99.90
55091;DHT22;40985;53.180;5.800;2022-11-20T11:18:28;2.60;99.90
55091;DHT22;40985;53.180;5.800;2022-11-20T11:20:56;2.70;99.90
55091;DHT22;40985;53.180;5.800;2022-11-20T11:23:42;2.70;99.90
55091;DHT22;40985;53.180;5.800;2022-11-20T11:26:37;2.70;99.90
55091;DHT22;40985;53.180;5.800;2022-11-20T11:29:04;2.80;99.90
55091;DHT22;40985;53.180;5.800;2022-11-20T11:31:34;2.80;99.90
55091;DHT22;40985;53.180;5.800;2022-11-20T11:34:14;2.90;99.90
55091;DHT22;40985;53.180;5.800;2022-11-20T11:36:41;3.00;99.90
55091;DHT22;40985;53.180;5.800;2022-11-20T11:39:14;3.00;99.90
55091;DHT22;40985;53.180;5.800;2022-11-20T11:41:40;3.00;99.90
55091;DHT22;40985;53.180;5.800;2022-11-20T11:44:19;3.10;99.90
55091;DHT22;40985;53.180;5.800;2022-11-20T11:47:10;3.20;99.90
55091;DHT22;40985;53.180;5.800;2022-11-20T11:49:36;3.40;99.90
55091;DHT22;40985;53.180;5.800;2022-11-20T11:52:14;3.50;99.90
55091;DHT22;40985;53.180;5.800;2022-11-20T11:57:17;3.30;99.90
55091;DHT22;40985;53.180;5.800;2022-11-20T12:00:08;3.20;99.90
55091;DHT22;40985;53.180;5.800;2022-11-20T12:07:47;3.20;99.90
55091;DHT22;40985;53.180;5.800;2022-11-20T12:10:20;3.10;99.90
55091;DHT22;40985;53.180;5.800;2022-11-20T12:15:50;3.20;99.90
55091;DHT22;40985;53.180;5.800;2022-11-20T12:18:18;3.10;99.90
55091;DHT22;40985;53.180;5.800;2022-11-20T12:20:55;3.10;99.90
55091;DHT22;40985;53.180;5.800;2022-11-20T12:23:32;3.10;99.90
55091;DHT22;40985;53.180;5.800;2022-11-20T12:26:08;3.00;99.90
55091;DHT22;40985;53.180;5.800;2022-11-20T12:40:34;2.90;99.90
55091;DHT22;40985;53.180;5.800;2022-11-20T12:43:11;2.90;99.90
55091;DHT22;40985;53.180;5.800;2022-11-20T12:46:13;2.90;99.90
55091;DHT22;40985;53.180;5.800;2022-11-20T12:48:47;2.90;99.90
55091;DHT22;40985;53.180;5.800;2022-11-20T12:57:28;2.90;99.90
55091;DHT22;40985;53.180;5.800;2022-11-20T13:07:53;2.90;99.90
55091;DHT22;40985;53.180;5.800;2022-11-20T13:10:43;3.00;99.90
55091;DHT22;40985;53.180;5.800;2022-11-20T13:13:32;2.90;99.90
55091;DHT22;40985;53.180;5.800;2022-11-20T13:16:15;2.90;99.90
55091;DHT22;40985;53.180;5.800;2022-11-20T13:18:42;2.90;99.90
55091;DHT22;40985;53.180;5.800;2022-11-20T13:21:19;2.90;99.90
55091;DHT22;40985;53.180;5.800;2022-11-20T13:23:45;2.90;99.90
55091;DHT22;40985;53.180;5.800;2022-11-20T13:26:20;2.80;99.90
55091;DHT22;40985;53.180;5.800;2022-11-20T13:28:48;2.80;99.90
55091;DHT22;40985;53.180;5.800;2022-11-20T13:31:32;2.80;99.90
55091;DHT22;40985;53.180;5.800;2022-11-20T13:34:01;2.80;99.90
55091;DHT22;40985;53.180;5.800;2022-11-20T13:36:29;2.80;99.90
55091;DHT22;40985;53.180;5.800;2022-11-20T13:38:56;2.80;99.90
55091;DHT22;40985;53.180;5.800;2022-11-20T13:41:53;2.70;99.90
55091;DHT22;40985;53.180;5.800;2022-11-20T13:44:37;2.70;99.90
55091;DHT22;40985;53.180;5.800;2022-11-20T13:47:03;2.60;99.90
55091;DHT22;40985;53.180;5.800;2022-11-20T13:49:39;2.60;99.90
55091;DHT22;40985;53.180;5.800;2022-11-20T14:00:13;2.50;99.90
55091;DHT22;40985;53.180;5.800;2022-11-20T14:02:40;2.40;99.90
55091;DHT22;40985;53.180;5.800;2022-11-20T14:05:22;2.40;99.90
55091;DHT22;40985;53.180;5.800;2022-11-20T14:07:49;2.40;99.90
55091;DHT22;40985;53.180;5.800;2022-11-20T14:10:26;2.40;99.90
55091;DHT22;40985;53.180;5.800;2022-11-20T14:12:53;2.30;99.90
55091;DHT22;40985;53.180;5.800;2022-11-20T14:15:30;2.40;99.90
55091;DHT22;40985;53.180;5.800;2022-11-20T14:17:57;2.30;99.90
55091;DHT22;40985;53.180;5.800;2022-11-20T14:20:29;2.30;99.90
55091;DHT22;40985;53.180;5.800;2022-11-20T14:22:56;2.20;99.90
55091;DHT22;40985;53.180;5.800;2022-11-20T14:25:24;2.20;99.90
55091;DHT22;40985;53.180;5.800;2022-11-20T14:27:58;2.20;99.90
55091;DHT22;40985;53.180;5.800;2022-11-20T14:30:26;2.20;99.90
55091;DHT22;40985;53.180;5.800;2022-11-20T14:32:54;2.20;99.90
55091;DHT22;40985;53.180;5.800;2022-11-20T14:35:26;2.20;99.90
55091;DHT22;40985;53.180;5.800;2022-11-20T14:37:53;2.10;99.90
55091;DHT22;40985;53.180;5.800;2022-11-20T14:42:48;2.10;99.90
55091;DHT22;40985;53.180;5.800;2022-11-20T14:45:15;2.20;99.90
55091;DHT22;40985;53.180;5.800;2022-11-20T14:47:41;2.20;99.90
55091;DHT22;40985;53.180;5.800;2022-11-20T14:50:22;2.20;99.90
55091;DHT22;40985;53.180;5.800;2022-11-20T14:53:06;2.10;99.90
55091;DHT22;40985;53.180;5.800;2022-11-20T14:55:37;2.10;99.90
55091;DHT22;40985;53.180;5.800;2022-11-20T14:58:05;2.10;99.90
55091;DHT22;40985;53.180;5.800;2022-11-20T15:00:34;2.10;99.90
55091;DHT22;40985;53.180;5.800;2022-11-20T15:03:00;2.10;99.90
55091;DHT22;40985;53.180;5.800;2022-11-20T15:05:44;2.10;99.90
55091;DHT22;40985;53.180;5.800;2022-11-20T15:08:11;2.10;99.90
55091;DHT22;40985;53.180;5.800;2022-11-20T15:10:37;2.10;99.90
55091;DHT22;40985;53.180;5.800;2022-11-20T15:13:10;2.10;99.90
55091;DHT22;40985;53.180;5.800;2022-11-20T15:18:15;2.10;99.90
55091;DHT22;40985;53.180;5.800;2022-11-20T15:20:42;2.00;99.90
55091;DHT22;40985;53.180;5.800;2022-11-20T15:23:14;2.00;99.90
55091;DHT22;40985;53.180;5.800;2022-11-20T15:25:40;2.00;99.90
55091;DHT22;40985;53.180;5.800;2022-11-20T15:28:36;2.10;99.90
55091;DHT22;40985;53.180;5.800;2022-11-20T15:31:03;2.00;99.90
55091;DHT22;40985;53.180;5.800;2022-11-20T15:33:30;2.00;99.90
55091;DHT22;40985;53.180;5.800;2022-11-20T15:35:56;2.00;99.90
55091;DHT22;40985;53.180;5.800;2022-11-20T15:38:22;2.00;99.90
55091;DHT22;40985;53.180;5.800;2022-11-20T15:40:48;2.00;99.90
55091;DHT22;40985;53.180;5.800;2022-11-20T15:43:14;2.00;99.90
55091;DHT22;40985;53.180;5.800;2022-11-20T15:45:45;2.00;99.90
55091;DHT22;40985;53.180;5.800;2022-11-20T15:48:23;2.00;99.90
55091;DHT22;40985;53.180;5.800;2022-11-20T15:51:03;1.90;99.90
55091;DHT22;40985;53.180;5.800;2022-11-20T15:53:31;1.90;99.90
55091;DHT22;40985;53.180;5.800;2022-11-20T15:55:56;1.90;99.90
55091;DHT22;40985;53.180;5.800;2022-11-20T15:58:22;1.90;99.90
55091;DHT22;40985;53.180;5.800;2022-11-20T16:00:49;1.90;99.90
55091;DHT22;40985;53.180;5.800;2022-11-20T16:03:16;1.90;99.90
55091;DHT22;40985;53.180;5.800;2022-11-20T16:05:42;1.90;99.90
55091;DHT22;40985;53.180;5.800;2022-11-20T16:08:08;1.90;99.90
55091;DHT22;40985;53.180;5.800;2022-11-20T16:10:33;1.90;99.90
55091;DHT22;40985;53.180;5.800;2022-11-20T16:12:59;1.90;99.90
55091;DHT22;40985;53.180;5.800;2022-11-20T16:15:50;1.90;99.90
55091;DHT22;40985;53.180;5.800;2022-11-20T16:18:19;1.90;99.90
55091;DHT22;40985;53.180;5.800;2022-11-20T16:20:47;1.90;99.90
55091;DHT22;40985;53.180;5.800;2022-11-20T16:23:14;1.90;99.90
55091;DHT22;40985;53.180;5.800;2022-11-20T16:25:41;1.90;99.90
55091;DHT22;40985;53.180;5.800;2022-11-20T16:28:07;1.90;99.90
55091;DHT22;40985;53.180;5.800;2022-11-20T16:30:33;1.90;99.90
55091;DHT22;40985;53.180;5.800;2022-11-20T16:32:59;1.90;99.90
55091;DHT22;40985;53.180;5.800;2022-11-20T16:35:26;1.90;99.90
55091;DHT22;40985;53.180;5.800;2022-11-20T16:37:54;1.80;99.90
55091;DHT22;40985;53.180;5.800;2022-11-20T16:40:19;1.80;99.90
55091;DHT22;40985;53.180;5.800;2022-11-20T16:42:45;1.80;99.90
55091;DHT22;40985;53.180;5.800;2022-11-20T16:45:11;1.80;99.90
55091;DHT22;40985;53.180;5.800;2022-11-20T16:47:37;1.80;99.90
55091;DHT22;40985;53.180;5.800;2022-11-20T16:50:03;1.80;99.90
55091;DHT22;40985;53.180;5.800;2022-11-20T16:52:30;1.80;99.90
55091;DHT22;40985;53.180;5.800;2022-11-20T16:54:56;1.70;99.90
55091;DHT22;40985;53.180;5.800;2022-11-20T16:57:21;1.70;99.90
55091;DHT22;40985;53.180;5.800;2022-11-20T16:59:48;1.70;99.90
55091;DHT22;40985;53.180;5.800;2022-11-20T17:02:14;1.70;99.90
55091;DHT22;40985;53.180;5.800;2022-11-20T17:04:40;1.70;99.90
55091;DHT22;40985;53.180;5.800;2022-11-20T17:07:06;1.70;99.90
55091;DHT22;40985;53.180;5.800;2022-11-20T17:09:32;1.70;99.90